Time;durP1;ratioP1;P1;durP2;ratioP2;P2;SDS_P1;SDS_P2;PMS_P1;PMS_P2;Temp;Humidity;BMP_temperature;BMP_pressure;BME280_temperature;BME280_humidity;BME280_pressure;Samples;Min_cycle;Max_cycle;Signal;HPM_P1;HPM_P2
2022/07/26 00:01:56;;;;;;;3.20;1.60;;;24.10;85.10;;;;;;5075932;28;20204;-58
2022/07/26 00:04:22;;;;;;;2.30;1.70;;;24.10;85.40;;;;;;5075579;28;20679;-57
2022/07/26 00:06:49;;;;;;;4.15;2.08;;;24.10;85.70;;;;;;5075547;28;20224;-57
2022/07/26 00:09:16;;;;;;;6.72;2.00;;;24.10;86.00;;;;;;5074862;28;20259;-57
2022/07/26 00:11:43;;;;;;;3.60;1.73;;;24.10;86.50;;;;;;5074665;28;20201;-57
2022/07/26 00:14:10;;;;;;;4.35;2.00;;;24.10;86.60;;;;;;5074385;28;20251;-57
2022/07/26 00:16:38;;;;;;;5.03;2.25;;;24.10;86.70;;;;;;5074114;28;20248;-58
2022/07/26 00:19:06;;;;;;;5.10;2.00;;;24.10;87.10;;;;;;5073897;28;20216;-57
2022/07/26 00:21:33;;;;;;;4.80;1.67;;;24.20;87.40;;;;;;5073931;28;20213;-57
2022/07/26 00:24:00;;;;;;;3.45;1.63;;;24.20;87.80;;;;;;5073990;28;20247;-57
2022/07/26 00:26:26;;;;;;;6.65;2.08;;;24.20;88.00;;;;;;5073633;28;20712;-57
2022/07/26 00:28:53;;;;;;;2.75;1.88;;;24.20;88.40;;;;;;5073703;28;20224;-57
2022/07/26 00:31:20;;;;;;;4.38;2.20;;;24.30;88.80;;;;;;5073746;28;20208;-57
2022/07/26 00:33:48;;;;;;;6.20;2.05;;;24.30;88.90;;;;;;5073623;28;20681;-57
2022/07/26 00:36:15;;;;;;;4.63;2.25;;;24.40;89.00;;;;;;5073477;28;20237;-57
2022/07/26 00:38:41;;;;;;;5.13;1.90;;;24.40;89.10;;;;;;5072587;28;20209;-58
2022/07/26 00:41:08;;;;;;;3.45;1.90;;;24.40;89.00;;;;;;5073407;28;20306;-57
2022/07/26 00:43:35;;;;;;;4.25;1.70;;;24.50;88.60;;;;;;5073444;28;20243;-57
2022/07/26 00:46:02;;;;;;;3.13;1.90;;;24.60;88.40;;;;;;5073488;28;20229;-57
2022/07/26 00:48:29;;;;;;;4.10;1.40;;;24.60;88.20;;;;;;5073164;28;20228;-57
2022/07/26 00:50:57;;;;;;;5.28;1.65;;;24.70;88.20;;;;;;5073639;28;20205;-58
2022/07/26 00:53:24;;;;;;;2.55;1.60;;;24.70;88.40;;;;;;5073627;28;20209;-57
2022/07/26 00:55:51;;;;;;;4.80;1.70;;;24.70;88.50;;;;;;5073441;28;20236;-57
2022/07/26 00:58:18;;;;;;;4.18;1.80;;;24.70;88.30;;;;;;5073073;28;20223;-57
2022/07/26 01:00:45;;;;;;;3.20;1.70;;;24.80;88.40;;;;;;5073296;28;20205;-58
2022/07/26 01:03:12;;;;;;;8.68;1.63;;;24.80;88.40;;;;;;5072950;28;20201;-57
2022/07/26 01:05:38;;;;;;;3.13;1.52;;;24.80;88.70;;;;;;5073372;28;20258;-57
2022/07/26 01:08:06;;;;;;;5.55;1.60;;;24.80;88.40;;;;;;5072899;28;20275;-57
2022/07/26 01:10:33;;;;;;;6.25;1.75;;;25.00;88.40;;;;;;5073055;28;20669;-57
2022/07/26 01:13:00;;;;;;;3.97;1.77;;;25.00;88.40;;;;;;5073165;28;20262;-58
2022/07/26 01:15:27;;;;;;;2.83;1.48;;;25.00;88.80;;;;;;5072818;28;20708;-57
2022/07/26 01:17:53;;;;;;;4.20;1.80;;;25.00;89.00;;;;;;5072593;28;20201;-57
2022/07/26 01:20:20;;;;;;;3.25;1.50;;;24.80;90.20;;;;;;5073408;28;20204;-58
2022/07/26 01:22:48;;;;;;;2.90;1.70;;;24.70;91.30;;;;;;5073177;28;20611;-57
2022/07/26 01:25:15;;;;;;;5.10;1.50;;;24.50;92.60;;;;;;5072924;28;20229;-58
2022/07/26 01:27:43;;;;;;;4.93;1.88;;;24.30;94.90;;;;;;5072632;28;20217;-58
2022/07/26 01:30:12;;;;;;;3.83;1.80;;;24.10;96.70;;;;;;5072560;28;20212;-58
2022/07/26 01:32:39;;;;;;;3.47;1.65;;;23.90;99.90;;;;;;5073309;28;20578;-57
2022/07/26 01:35:07;;;;;;;5.25;1.90;;;23.80;99.90;;;;;;5072971;28;20648;-57
2022/07/26 01:37:33;;;;;;;3.75;1.95;;;23.20;99.90;;;;;;5072914;28;20201;-57
2022/07/26 01:40:02;;;;;;;5.07;1.80;;;22.60;99.90;;;;;;5072461;28;20283;-57
2022/07/26 01:42:29;;;;;;;6.20;1.92;;;22.20;99.90;;;;;;5072716;28;20262;-57
2022/07/26 01:44:55;;;;;;;4.68;1.70;;;21.90;99.90;;;;;;5072359;28;20246;-58
2022/07/26 01:47:22;;;;;;;4.20;1.90;;;21.80;99.90;;;;;;5072613;28;20389;-57
2022/07/26 01:49:49;;;;;;;2.50;1.70;;;21.60;99.90;;;;;;5072061;28;20205;-57
2022/07/26 01:52:16;;;;;;;2.78;1.95;;;21.50;99.90;;;;;;5072371;28;20687;-57
2022/07/26 01:54:42;;;;;;;1.90;1.67;;;21.40;99.90;;;;;;5072418;28;20209;-57
2022/07/26 01:57:10;;;;;;;3.58;1.90;;;21.30;99.90;;;;;;5072244;28;20244;-57
2022/07/26 01:59:37;;;;;;;3.15;1.92;;;21.10;99.90;;;;;;5072533;28;20204;-57
2022/07/26 02:02:04;;;;;;;2.17;1.88;;;21.10;99.90;;;;;;5072697;28;20231;-58
2022/07/26 02:05:01;;;;;;;3.10;1.83;;;21.10;99.90;;;;;;5072351;28;20207;-57
2022/07/26 02:07:29;;;;;;;2.53;1.70;;;21.10;99.90;;;;;;5072199;28;20668;-57
2022/07/26 02:09:56;;;;;;;4.13;1.90;;;20.90;99.90;;;;;;5071985;28;20212;-57
2022/07/26 02:12:25;;;;;;;4.72;3.05;;;20.80;99.90;;;;;;5072402;28;20217;-57
2022/07/26 02:14:51;;;;;;;2.58;2.00;;;21.00;99.90;;;;;;5072254;28;20208;-57
2022/07/26 02:17:18;;;;;;;4.38;3.50;;;21.00;99.90;;;;;;5072089;28;20207;-57
2022/07/26 02:19:45;;;;;;;3.67;2.50;;;21.10;99.90;;;;;;5071984;28;20209;-57
2022/07/26 02:22:12;;;;;;;5.40;2.33;;;21.20;99.90;;;;;;5072007;28;20205;-58
2022/07/26 02:24:38;;;;;;;5.22;2.10;;;21.30;99.90;;;;;;5071917;28;20209;-57
2022/07/26 02:27:05;;;;;;;3.75;1.90;;;21.30;99.90;;;;;;5071873;28;20221;-58
2022/07/26 02:29:34;;;;;;;2.15;1.60;;;21.40;99.90;;;;;;5072038;28;20232;-58
2022/07/26 02:32:00;;;;;;;2.17;1.80;;;21.40;99.90;;;;;;5072337;28;20208;-57
2022/07/26 02:34:27;;;;;;;1.90;1.65;;;21.40;99.90;;;;;;5072295;28;20208;-58
2022/07/26 02:36:54;;;;;;;2.22;1.73;;;21.30;99.90;;;;;;5071937;28;20228;-58
2022/07/26 02:39:21;;;;;;;5.88;3.03;;;21.30;99.90;;;;;;5072347;28;20211;-57
2022/07/26 02:41:48;;;;;;;4.35;2.97;;;21.30;99.90;;;;;;5072168;28;20204;-58
2022/07/26 02:44:15;;;;;;;3.13;2.28;;;21.30;99.90;;;;;;5072084;28;20266;-58
2022/07/26 02:46:43;;;;;;;3.67;2.20;;;21.30;99.90;;;;;;5071871;28;20251;-57
2022/07/26 02:49:10;;;;;;;5.03;2.10;;;21.20;99.90;;;;;;5071850;28;20224;-57
2022/07/26 02:51:36;;;;;;;3.72;2.22;;;21.30;99.90;;;;;;5072391;28;20204;-57
2022/07/26 02:54:03;;;;;;;5.43;3.30;;;21.30;99.90;;;;;;5071947;28;20730;-57
2022/07/26 02:56:30;;;;;;;3.40;2.08;;;21.40;99.90;;;;;;5071617;28;20240;-58
2022/07/26 02:58:57;;;;;;;2.42;2.20;;;21.40;99.90;;;;;;5071557;28;20258;-57
2022/07/26 03:01:23;;;;;;;4.57;2.80;;;21.40;99.90;;;;;;5072108;28;20231;-57
2022/07/26 03:03:51;;;;;;;3.90;2.15;;;21.40;99.90;;;;;;5074840;28;20209;-59
2022/07/26 03:06:19;;;;;;;1.88;1.75;;;21.40;99.90;;;;;;5075289;28;20232;-57
2022/07/26 03:08:45;;;;;;;2.05;1.80;;;21.40;99.90;;;;;;5075111;28;20255;-57
2022/07/26 03:11:12;;;;;;;3.35;2.10;;;21.20;99.90;;;;;;5075565;28;20204;-58
2022/07/26 03:13:39;;;;;;;4.38;1.80;;;21.20;99.90;;;;;;5075382;28;20730;-58
2022/07/26 03:16:07;;;;;;;9.10;8.20;;;21.20;99.90;;;;;;5075733;28;20720;-57
2022/07/26 03:18:34;;;;;;;4.30;2.83;;;21.20;99.90;;;;;;5075110;28;20196;-58
2022/07/26 03:21:02;;;;;;;2.97;2.10;;;21.20;99.90;;;;;;5075409;28;20212;-57
2022/07/26 03:23:32;;;;;;;3.08;2.00;;;21.10;99.90;;;;;;5075360;28;20216;-57
2022/07/26 03:25:58;;;;;;;5.38;2.65;;;21.10;99.90;;;;;;5075409;28;20374;-58
2022/07/26 03:28:25;;;;;;;3.55;1.75;;;21.10;99.90;;;;;;5074892;28;20692;-57
2022/07/26 03:30:52;;;;;;;7.60;5.95;;;21.10;99.90;;;;;;5075412;28;20205;-57
2022/07/26 03:33:18;;;;;;;2.70;2.38;;;21.10;99.90;;;;;;5075364;28;20630;-57
2022/07/26 03:35:45;;;;;;;2.88;1.77;;;21.10;99.90;;;;;;5075332;28;20240;-57
2022/07/26 03:38:13;;;;;;;3.13;1.92;;;21.00;99.90;;;;;;5074990;28;20197;-57
2022/07/26 03:40:40;;;;;;;4.47;2.90;;;20.90;99.90;;;;;;5074943;28;20620;-57
2022/07/26 03:43:06;;;;;;;4.75;2.60;;;20.80;99.90;;;;;;5075302;28;20262;-57
2022/07/26 03:45:33;;;;;;;3.95;3.45;;;20.80;99.90;;;;;;5074554;28;20221;-58
2022/07/26 03:48:00;;;;;;;3.65;2.17;;;20.80;99.90;;;;;;5074688;28;20217;-58
2022/07/26 03:50:27;;;;;;;2.08;1.88;;;20.80;99.90;;;;;;5074369;28;20668;-56
2022/07/26 03:52:53;;;;;;;4.38;2.20;;;20.70;99.90;;;;;;5074814;28;20209;-57
2022/07/26 03:58:06;;;;;;;3.50;2.00;;;20.50;99.90;;;;;;5053697;28;20216;-56
2022/07/26 04:00:33;;;;;;;3.10;1.92;;;20.40;99.90;;;;;;5054806;28;20217;-57
2022/07/26 04:02:59;;;;;;;5.32;2.00;;;20.40;99.90;;;;;;5054666;28;20210;-56
2022/07/26 04:05:26;;;;;;;2.25;1.83;;;20.30;99.90;;;;;;5054314;28;20213;-57
2022/07/26 04:07:53;;;;;;;2.78;1.75;;;20.30;99.90;;;;;;5054213;28;20690;-58
2022/07/26 04:10:21;;;;;;;3.13;2.08;;;20.00;99.90;;;;;;5054227;28;20221;-59
2022/07/26 04:12:49;;;;;;;4.43;2.00;;;19.80;99.90;;;;;;5053690;28;20252;-58
2022/07/26 04:15:17;;;;;;;2.28;1.70;;;19.80;99.90;;;;;;5053878;28;20267;-58
2022/07/26 04:17:46;;;;;;;3.47;2.17;;;19.70;99.90;;;;;;5054117;28;20300;-58
2022/07/26 04:20:13;;;;;;;2.78;2.30;;;19.60;99.90;;;;;;5053631;28;20198;-58
2022/07/26 04:22:42;;;;;;;3.92;2.00;;;19.50;99.90;;;;;;5053961;28;20206;-58
2022/07/26 04:25:09;;;;;;;2.45;2.00;;;19.60;99.90;;;;;;5054314;28;20205;-58
2022/07/26 04:27:37;;;;;;;3.13;2.83;;;19.70;99.90;;;;;;5053863;28;20236;-58
2022/07/26 04:30:05;;;;;;;3.10;2.00;;;19.80;99.90;;;;;;5053637;28;20245;-58
2022/07/26 04:32:32;;;;;;;4.45;2.20;;;20.00;99.90;;;;;;5053712;28;20658;-58
2022/07/26 04:34:59;;;;;;;2.58;1.85;;;20.30;99.90;;;;;;5053624;28;20217;-57
2022/07/26 04:37:25;;;;;;;3.05;2.30;;;20.40;99.90;;;;;;5053519;28;20225;-58
2022/07/26 04:39:52;;;;;;;2.40;2.05;;;20.70;99.90;;;;;;5053270;28;20206;-58
2022/07/26 04:42:19;;;;;;;2.28;2.00;;;20.80;99.90;;;;;;5053861;28;20263;-58
2022/07/26 04:44:47;;;;;;;2.72;2.30;;;20.90;99.90;;;;;;5053758;28;20209;-58
2022/07/26 04:47:13;;;;;;;3.65;2.47;;;21.00;99.90;;;;;;5053529;28;20225;-59
2022/07/26 04:49:40;;;;;;;3.92;1.98;;;21.10;99.90;;;;;;5053109;28;20584;-59
2022/07/26 04:52:07;;;;;;;3.85;2.10;;;21.20;99.90;;;;;;5053242;28;20209;-57
2022/07/26 04:54:34;;;;;;;2.72;1.90;;;21.30;99.90;;;;;;5053114;28;20235;-58
2022/07/26 04:57:00;;;;;;;3.42;2.08;;;21.40;99.90;;;;;;5052939;28;20256;-58
2022/07/26 04:59:27;;;;;;;3.83;1.80;;;21.50;99.90;;;;;;5053319;28;20205;-58
2022/07/26 05:01:55;;;;;;;3.67;2.00;;;21.60;99.90;;;;;;5053088;28;20209;-58
2022/07/26 05:04:22;;;;;;;2.63;1.77;;;21.70;99.90;;;;;;5053016;28;20209;-58
2022/07/26 05:06:48;;;;;;;2.83;1.83;;;21.90;99.90;;;;;;5052837;28;20232;-58
2022/07/26 05:09:15;;;;;;;5.22;1.95;;;22.00;99.90;;;;;;5052649;28;20232;-58
2022/07/26 05:11:42;;;;;;;4.03;2.13;;;22.00;99.90;;;;;;5053095;28;20210;-58
2022/07/26 05:14:08;;;;;;;2.42;1.90;;;22.00;99.90;;;;;;5052912;28;20213;-58
2022/07/26 05:16:35;;;;;;;3.63;2.30;;;22.00;99.90;;;;;;5052865;28;20233;-58
2022/07/26 05:19:03;;;;;;;3.45;2.08;;;22.10;99.90;;;;;;5052327;28;20692;-58
2022/07/26 05:21:30;;;;;;;2.72;1.85;;;22.10;99.90;;;;;;5052563;28;20209;-58
2022/07/26 05:23:56;;;;;;;3.78;1.77;;;22.30;99.90;;;;;;5052840;28;20300;-59
2022/07/26 05:26:23;;;;;;;2.55;1.77;;;22.60;99.90;;;;;;5051928;28;20225;-59
2022/07/26 05:28:50;;;;;;;2.85;1.92;;;22.90;99.90;;;;;;5052358;28;20279;-56
2022/07/26 05:31:16;;;;;;;7.90;1.98;;;23.30;99.90;;;;;;5052630;28;20213;-58
2022/07/26 05:33:43;;;;;;;7.47;2.25;;;23.60;99.90;;;;;;5053025;28;20206;-58
2022/07/26 05:36:11;;;;;;;4.20;2.30;;;23.80;99.90;;;;;;5052365;28;20229;-57
2022/07/26 05:38:38;;;;;;;3.88;1.75;;;24.50;99.90;;;;;;5052198;28;20284;-58
2022/07/26 05:41:05;;;;;;;2.08;1.73;;;25.50;99.90;;;;;;5052610;28;20210;-59
2022/07/26 05:43:32;;;;;;;4.35;1.48;;;26.80;99.90;;;;;;5052264;28;20206;-58
2022/07/26 05:45:59;;;;;;;4.53;1.52;;;28.30;99.90;;;;;;5052202;28;20310;-59
2022/07/26 05:48:26;;;;;;;4.28;1.27;;;29.70;99.90;;;;;;5051814;28;20213;-59
2022/07/26 05:50:53;;;;;;;4.20;1.48;;;31.30;99.90;;;;;;5052489;28;20210;-59
2022/07/26 05:53:21;;;;;;;1.70;1.40;;;32.80;99.90;;;;;;5052125;28;20700;-59
2022/07/26 05:55:47;;;;;;;3.97;1.63;;;33.90;93.70;;;;;;5051889;28;20291;-59
2022/07/26 05:58:14;;;;;;;2.47;2.05;;;34.00;91.30;;;;;;5052206;28;20205;-58
2022/07/26 06:00:41;;;;;;;2.60;1.60;;;33.10;91.30;;;;;;5051868;28;20572;-58
2022/07/26 06:03:21;;;;;;;2.58;1.85;;;32.00;92.50;;;;;;5051910;28;20292;-59
2022/07/26 06:05:48;;;;;;;3.20;1.70;;;31.00;94.10;;;;;;5052042;28;20315;-58
2022/07/26 06:08:15;;;;;;;2.58;1.17;;;30.90;94.60;;;;;;5052081;28;20209;-58
2022/07/26 06:10:43;;;;;;;5.20;1.80;;;31.50;93.80;;;;;;5051438;28;20736;-58
2022/07/26 06:13:10;;;;;;;3.55;1.35;;;32.70;91.90;;;;;;5051906;28;20202;-65
2022/07/26 06:15:37;;;;;;;3.30;1.63;;;34.10;86.70;;;;;;5051804;28;20236;-57
2022/07/26 06:18:04;;;;;;;2.08;1.20;;;35.50;81.80;;;;;;5051826;28;20236;-59
2022/07/26 06:20:30;;;;;;;9.90;1.23;;;36.80;75.40;;;;;;5051816;28;20208;-57
2022/07/26 06:22:57;;;;;;;5.40;1.60;;;38.00;69.90;;;;;;5051862;28;20205;-58
2022/07/26 06:25:24;;;;;;;4.38;1.70;;;38.80;65.50;;;;;;5052043;28;20723;-58
2022/07/26 06:27:53;;;;;;;10.35;2.10;;;39.30;62.70;;;;;;5051606;28;20693;-61
2022/07/26 06:30:19;;;;;;;2.75;1.45;;;39.70;60.80;;;;;;5051384;28;20229;-59
2022/07/26 06:32:46;;;;;;;6.43;1.52;;;40.10;59.20;;;;;;5051677;28;20669;-60
2022/07/26 06:35:14;;;;;;;2.03;1.40;;;40.80;56.80;;;;;;5052087;28;20259;-60
2022/07/26 06:37:42;;;;;;;6.38;1.40;;;41.20;55.60;;;;;;5054681;28;20212;-58
2022/07/26 06:40:10;;;;;;;3.05;1.38;;;41.30;54.60;;;;;;5051548;28;20263;-60
2022/07/26 06:42:37;;;;;;;7.25;2.22;;;41.60;54.10;;;;;;5054778;28;20583;-61
2022/07/26 06:45:06;;;;;;;4.47;1.27;;;41.80;52.00;;;;;;5054518;28;20618;-60
2022/07/26 06:47:34;;;;;;;4.55;1.30;;;42.10;50.80;;;;;;5054952;28;20224;-61
2022/07/26 06:50:00;;;;;;;4.30;1.40;;;42.30;49.90;;;;;;5053987;28;20220;-60
2022/07/26 06:52:27;;;;;;;3.70;1.33;;;42.50;48.40;;;;;;5054862;28;20258;-62
2022/07/26 06:54:54;;;;;;;7.40;2.05;;;42.60;48.60;;;;;;5054225;28;20205;-61
2022/07/26 06:57:20;;;;;;;5.38;1.67;;;42.90;48.00;;;;;;5054259;28;20237;-61
2022/07/26 06:59:47;;;;;;;5.15;1.60;;;43.40;47.50;;;;;;5054024;28;20601;-61
2022/07/26 07:02:15;;;;;;;6.63;1.85;;;43.90;46.10;;;;;;5054656;28;20654;-61
2022/07/26 07:04:42;;;;;;;4.38;1.73;;;43.60;45.80;;;;;;5054462;28;20282;-60
2022/07/26 07:07:09;;;;;;;11.98;2.33;;;43.60;45.00;;;;;;5053998;28;20220;-59
2022/07/26 07:09:36;;;;;;;4.55;1.33;;;44.10;43.70;;;;;;5053814;28;20221;-59
2022/07/26 07:12:03;;;;;;;4.40;1.27;;;43.90;43.60;;;;;;5053970;28;20212;-59
2022/07/26 07:14:30;;;;;;;2.78;1.52;;;44.10;43.50;;;;;;5054040;28;20213;-58
2022/07/26 07:16:57;;;;;;;2.70;1.30;;;44.30;42.40;;;;;;5054012;28;20244;-61
2022/07/26 07:19:25;;;;;;;5.75;1.25;;;44.70;42.00;;;;;;5053527;28;20208;-62
2022/07/26 07:21:52;;;;;;;4.30;1.08;;;45.10;40.50;;;;;;5047746;28;20223;-61
2022/07/26 07:24:19;;;;;;;6.40;1.42;;;44.70;40.70;;;;;;5051417;28;20208;-59
2022/07/26 07:26:46;;;;;;;3.92;1.20;;;44.50;41.10;;;;;;5052594;28;20640;-59
2022/07/26 07:29:13;;;;;;;3.25;1.10;;;44.70;40.00;;;;;;5053767;28;20225;-59
2022/07/26 07:31:40;;;;;;;3.72;1.20;;;44.70;38.90;;;;;;5053437;28;20208;-59
2022/07/26 07:34:08;;;;;;;4.20;1.35;;;44.30;39.00;;;;;;5053857;28;20228;-59
2022/07/26 07:36:36;;;;;;;4.07;1.40;;;44.60;38.80;;;;;;5053621;28;20228;-63
2022/07/26 07:39:02;;;;;;;1.02;0.70;;;45.30;38.20;;;;;;5053244;28;20209;-61
2022/07/26 07:41:29;;;;;;;8.18;1.17;;;46.10;37.50;;;;;;5053592;28;20212;-59
2022/07/26 07:43:56;;;;;;;2.95;1.00;;;46.60;36.10;;;;;;5053368;28;20201;-59
2022/07/26 07:46:23;;;;;;;4.85;1.20;;;46.80;35.10;;;;;;5053271;28;20229;-59
2022/07/26 07:48:49;;;;;;;3.38;1.38;;;46.70;36.20;;;;;;5052369;28;20216;-59
2022/07/26 07:51:16;;;;;;;8.45;2.17;;;46.90;35.10;;;;;;5053045;28;20279;-59
2022/07/26 07:53:44;;;;;;;8.95;1.63;;;46.80;34.70;;;;;;5053071;28;20246;-59
2022/07/26 07:56:11;;;;;;;12.38;2.08;;;45.80;35.30;;;;;;5052846;28;20237;-59
2022/07/26 07:58:37;;;;;;;14.43;2.03;;;45.40;35.60;;;;;;5053095;28;20201;-59
2022/07/26 08:01:04;;;;;;;5.35;2.63;;;44.80;36.00;;;;;;5053285;28;20209;-59
2022/07/26 08:03:31;;;;;;;10.98;2.13;;;44.70;36.20;;;;;;5053154;28;20209;-59
2022/07/26 08:05:58;;;;;;;7.55;1.75;;;44.80;35.30;;;;;;5052892;28;20229;-59
2022/07/26 08:08:24;;;;;;;9.75;1.65;;;44.70;35.80;;;;;;5052556;28;20209;-59
2022/07/26 08:10:52;;;;;;;9.85;2.00;;;44.30;35.60;;;;;;5052813;28;20591;-60
2022/07/26 08:13:20;;;;;;;6.28;1.88;;;42.40;37.70;;;;;;5052931;28;20213;-59
2022/07/26 08:15:46;;;;;;;4.57;1.23;;;39.80;40.50;;;;;;5052839;28;20225;-59
2022/07/26 08:18:13;;;;;;;5.40;1.48;;;38.10;42.30;;;;;;5052907;28;20204;-59
2022/07/26 08:20:40;;;;;;;4.90;1.17;;;37.30;43.70;;;;;;5052056;28;20237;-59
2022/07/26 08:23:06;;;;;;;3.90;0.90;;;37.30;43.70;;;;;;5052873;28;20544;-59
2022/07/26 08:25:33;;;;;;;4.22;1.10;;;37.70;43.20;;;;;;5052992;28;20229;-59
2022/07/26 08:28:01;;;;;;;4.75;1.10;;;37.90;43.10;;;;;;5052940;28;20209;-59
2022/07/26 08:30:28;;;;;;;2.67;0.88;;;38.40;42.50;;;;;;5052894;28;20222;-60
2022/07/26 08:32:54;;;;;;;3.97;0.98;;;38.90;42.30;;;;;;5052278;28;20205;-59
2022/07/26 08:35:21;;;;;;;2.03;1.00;;;38.30;41.50;;;;;;5052696;28;20209;-59
2022/07/26 08:37:48;;;;;;;4.20;1.50;;;36.50;43.40;;;;;;5053308;28;20206;-59
2022/07/26 08:40:15;;;;;;;1.88;0.88;;;35.70;43.80;;;;;;5053526;28;20261;-59
2022/07/26 08:42:49;;;;;;;5.72;1.10;;;35.60;44.70;;;;;;5053339;28;20209;-59
2022/07/26 08:45:22;;;;;;;6.60;1.40;;;36.50;44.30;;;;;;5052714;28;20217;-59
2022/07/26 08:47:49;;;;;;;4.80;1.23;;;37.10;43.60;;;;;;5052327;28;20717;-59
2022/07/26 08:50:16;;;;;;;2.15;1.00;;;37.00;43.20;;;;;;5051856;28;20686;-57
2022/07/26 08:52:43;;;;;;;2.20;1.00;;;36.10;43.70;;;;;;5053271;28;20213;-59
2022/07/26 08:55:10;;;;;;;7.05;1.80;;;34.60;45.60;;;;;;5054676;28;20658;-59
2022/07/26 08:57:37;;;;;;;3.00;1.05;;;33.50;47.30;;;;;;5051674;28;20275;-59
2022/07/26 09:00:19;;;;;;;4.70;0.85;;;32.60;48.20;;;;;;5050816;28;20201;-59
2022/07/26 09:02:48;;;;;;;4.00;1.30;;;31.70;49.90;;;;;;5051936;28;20259;-59
2022/07/26 09:05:15;;;;;;;4.07;0.80;;;31.00;51.00;;;;;;5051982;28;20262;-59
2022/07/26 09:07:44;;;;;;;1.42;0.80;;;30.60;52.00;;;;;;5051811;28;20297;-59
2022/07/26 09:10:12;;;;;;;0.93;0.63;;;30.10;52.60;;;;;;5051708;28;20229;-59
2022/07/26 09:12:39;;;;;;;5.18;0.90;;;29.60;53.50;;;;;;5052207;28;20282;-59
2022/07/26 09:15:16;;;;;;;2.45;1.00;;;29.30;54.30;;;;;;5051941;28;20201;-59
2022/07/26 09:17:45;;;;;;;1.88;0.90;;;28.90;54.60;;;;;;5051836;28;20247;-60
2022/07/26 09:20:16;;;;;;;8.48;1.42;;;28.50;55.90;;;;;;5051226;28;20235;-59
2022/07/26 09:22:59;;;;;;;9.00;1.70;;;28.20;56.00;;;;;;5068119;28;20548;-59
2022/07/26 09:25:27;;;;;;;8.23;1.70;;;28.10;57.00;;;;;;5047140;28;20217;-59
2022/07/26 09:27:54;;;;;;;6.78;1.08;;;28.00;57.00;;;;;;5028644;28;20225;-59
2022/07/26 09:30:21;;;;;;;15.30;2.13;;;27.80;57.30;;;;;;5028027;28;20219;-59
2022/07/26 09:33:01;;;;;;;9.77;1.77;;;27.70;57.40;;;;;;5028186;28;20199;-59
2022/07/26 09:35:29;;;;;;;3.92;1.52;;;27.60;57.90;;;;;;5053802;23;20233;-58
2022/07/26 09:37:57;;;;;;;6.80;1.75;;;27.40;58.20;;;;;;5040151;28;20202;-58
2022/07/26 09:40:32;;;;;;;11.07;2.47;;;27.30;58.10;;;;;;5048631;28;20209;-59
2022/07/26 09:43:00;;;;;;;10.50;2.25;;;27.30;59.20;;;;;;5048682;28;20205;-59
2022/07/26 09:45:28;;;;;;;8.00;2.00;;;27.30;58.70;;;;;;5048193;28;20617;-58
2022/07/26 09:47:55;;;;;;;2.00;1.02;;;27.30;58.30;;;;;;5048937;28;20429;-59
2022/07/26 09:50:23;;;;;;;3.92;1.10;;;27.30;57.90;;;;;;5047645;28;20209;-59
2022/07/26 09:53:09;;;;;;;1.80;0.57;;;27.30;58.60;;;;;;5048470;28;20209;-58
2022/07/26 09:55:53;;;;;;;1.98;0.85;;;27.10;58.40;;;;;;5048102;28;20727;-58
2022/07/26 09:58:20;;;;;;;1.90;0.93;;;27.10;59.20;;;;;;5048101;28;20213;-58
2022/07/26 10:00:47;;;;;;;1.20;0.63;;;27.10;58.50;;;;;;5047603;28;20634;-58
2022/07/26 10:03:14;;;;;;;1.65;0.82;;;27.20;58.50;;;;;;5048145;28;20343;-59
2022/07/26 10:05:42;;;;;;;3.30;0.77;;;27.30;58.60;;;;;;5047742;28;20601;-59
2022/07/26 10:08:12;;;;;;;1.10;0.70;;;27.30;58.60;;;;;;5047969;28;20655;-59
2022/07/26 10:10:43;;;;;;;4.20;1.10;;;27.20;58.90;;;;;;5047356;28;20653;-58
2022/07/26 10:13:10;;;;;;;3.80;1.40;;;27.10;59.30;;;;;;5047685;28;20216;-58
2022/07/26 10:15:40;;;;;;;3.30;0.95;;;27.20;59.70;;;;;;5047924;28;20229;-60
2022/07/26 10:18:09;;;;;;;3.75;1.05;;;27.00;60.00;;;;;;5048123;28;20237;-60
2022/07/26 10:20:44;;;;;;;2.75;1.40;;;27.00;60.20;;;;;;5047622;28;20202;-59
2022/07/26 10:23:39;;;;;;;3.85;1.17;;;26.80;60.80;;;;;;5047540;28;20212;-58
2022/07/26 10:26:07;;;;;;;2.85;1.20;;;26.70;61.30;;;;;;5047572;28;20617;-59
2022/07/26 10:28:36;;;;;;;3.17;1.00;;;26.70;61.90;;;;;;5047667;28;20210;-59
2022/07/26 10:31:29;;;;;;;1.40;0.88;;;26.90;61.70;;;;;;5047110;28;20275;-59
2022/07/26 10:33:57;;;;;;;1.52;0.73;;;26.90;62.00;;;;;;5035350;28;20202;-59
2022/07/26 10:36:27;;;;;;;1.88;0.95;;;26.90;62.50;;;;;;5034558;28;20222;-59
2022/07/26 10:39:10;;;;;;;2.45;1.23;;;27.00;61.90;;;;;;5034325;28;20217;-59
2022/07/26 10:41:44;;;;;;;4.38;1.00;;;27.10;62.00;;;;;;5034207;28;20226;-60
2022/07/26 10:44:24;;;;;;;3.88;1.15;;;27.10;62.20;;;;;;5034521;28;20202;-59
2022/07/26 10:47:14;;;;;;;5.60;1.48;;;27.10;62.80;;;;;;5034710;28;20233;-58
2022/07/26 10:49:43;;;;;;;5.80;1.42;;;27.20;62.10;;;;;;5034228;28;20210;-59
2022/07/26 10:52:15;;;;;;;3.38;1.42;;;27.20;62.30;;;;;;5034310;28;20206;-59
2022/07/26 10:55:17;;;;;;;3.78;1.08;;;27.20;61.70;;;;;;5033652;28;20226;-58
2022/07/26 10:57:47;;;;;;;7.00;1.13;;;27.10;61.70;;;;;;5034052;28;20206;-59
2022/07/26 11:00:19;;;;;;;3.28;1.13;;;26.90;62.00;;;;;;5033577;28;20202;-59
2022/07/26 11:02:49;;;;;;;3.25;1.10;;;26.90;61.30;;;;;;5033692;28;20317;-59
2022/07/26 11:05:17;;;;;;;2.90;0.80;;;26.80;61.70;;;;;;5033648;28;20226;-59
2022/07/26 11:07:53;;;;;;;4.63;1.60;;;26.80;61.20;;;;;;5033919;28;20221;-59
2022/07/26 11:10:26;;;;;;;11.00;1.80;;;26.80;62.50;;;;;;5033421;28;20206;-58
2022/07/26 11:13:14;;;;;;;7.93;2.00;;;26.90;61.70;;;;;;5033829;28;20662;-59
2022/07/26 11:15:43;;;;;;;5.13;1.25;;;26.90;61.30;;;;;;5033267;28;20226;-59
2022/07/26 11:18:22;;;;;;;7.40;1.13;;;26.90;60.70;;;;;;5033822;28;20335;-59
2022/07/26 11:20:52;;;;;;;3.50;0.85;;;26.90;60.60;;;;;;5033679;28;20332;-59
2022/07/26 11:23:27;;;;;;;2.63;1.17;;;26.90;60.70;;;;;;5033362;28;20606;-58
2022/07/26 11:26:07;;;;;;;2.15;0.80;;;27.10;60.60;;;;;;5033280;28;20222;-59
2022/07/26 11:28:56;;;;;;;3.42;1.33;;;27.30;60.20;;;;;;5033587;28;20210;-59
2022/07/26 11:31:26;;;;;;;9.43;1.63;;;27.50;59.40;;;;;;5033204;28;20202;-58
2022/07/26 11:33:53;;;;;;;2.55;0.82;;;27.50;58.70;;;;;;5033091;28;20225;-59
2022/07/26 11:36:32;;;;;;;2.15;0.90;;;27.40;58.60;;;;;;5032855;28;20249;-58
2022/07/26 11:38:58;;;;;;;6.22;1.48;;;27.30;59.90;;;;;;5033100;28;20206;-59
2022/07/26 11:41:30;;;;;;;6.13;0.88;;;27.30;59.70;;;;;;5033150;28;20226;-58
2022/07/26 11:43:57;;;;;;;2.83;0.85;;;27.40;58.60;;;;;;5033377;28;20233;-62
2022/07/26 11:46:33;;;;;;;10.80;1.65;;;27.60;57.80;;;;;;5033382;28;20694;-62
2022/07/26 11:49:00;;;;;;;8.38;1.60;;;27.80;56.40;;;;;;5033207;28;20651;-61
2022/07/26 11:51:27;;;;;;;5.70;1.35;;;27.80;55.90;;;;;;5032941;28;20270;-60
2022/07/26 11:53:58;;;;;;;4.72;1.30;;;27.70;56.10;;;;;;5033465;28;20202;-60
2022/07/26 11:56:29;;;;;;;1.73;0.90;;;27.70;56.10;;;;;;5033768;28;20296;-61
2022/07/26 11:58:57;;;;;;;2.58;0.98;;;27.70;55.40;;;;;;5033868;28;20504;-61
2022/07/26 12:01:25;;;;;;;8.38;1.23;;;27.70;56.00;;;;;;5033655;28;20653;-61
2022/07/26 12:03:54;;;;;;;2.80;0.98;;;27.70;55.90;;;;;;5033818;28;20669;-62
2022/07/26 12:06:22;;;;;;;1.77;0.73;;;27.90;55.50;;;;;;5033215;28;20753;-61
2022/07/26 12:08:51;;;;;;;1.35;0.77;;;28.10;54.30;;;;;;5034186;28;20210;-61
2022/07/26 12:11:20;;;;;;;1.98;0.80;;;28.30;54.90;;;;;;5032575;28;20209;-61
2022/07/26 12:13:56;;;;;;;2.17;0.75;;;28.50;54.20;;;;;;5033484;28;20583;-61
2022/07/26 12:16:37;;;;;;;2.33;1.05;;;28.80;53.50;;;;;;5033258;28;20232;-61
2022/07/26 12:19:05;;;;;;;2.72;0.70;;;29.00;53.20;;;;;;5033458;28;20210;-61
2022/07/26 12:21:40;;;;;;;3.20;0.90;;;29.10;52.40;;;;;;5033718;28;20213;-61
2022/07/26 12:24:07;;;;;;;2.30;0.70;;;29.10;52.40;;;;;;5033553;28;20218;-62
2022/07/26 12:26:34;;;;;;;1.38;0.80;;;29.30;52.70;;;;;;5033241;28;20685;-60
2022/07/26 12:31:44;;;;;;;4.35;1.10;;;29.80;51.80;;;;;;5032758;28;20195;-60
2022/07/26 12:34:11;;;;;;;4.10;0.88;;;30.10;51.90;;;;;;5032541;28;20214;-63
2022/07/26 12:36:38;;;;;;;13.93;1.48;;;30.10;51.20;;;;;;5032287;28;20221;-60
2022/07/26 12:39:05;;;;;;;7.30;1.45;;;29.80;52.00;;;;;;5031700;28;20214;-61
2022/07/26 12:41:34;;;;;;;4.47;1.10;;;29.60;52.60;;;;;;5021101;28;20203;-60
2022/07/26 12:44:00;;;;;;;3.90;1.13;;;29.30;52.80;;;;;;5012583;28;20284;-58
2022/07/26 12:46:31;;;;;;;1.63;0.65;;;29.20;53.30;;;;;;5012210;28;20218;-59
2022/07/26 12:48:58;;;;;;;1.60;0.60;;;29.10;52.20;;;;;;5012588;28;20207;-60
2022/07/26 12:51:25;;;;;;;3.80;1.02;;;29.00;52.00;;;;;;5013387;28;20203;-60
2022/07/26 12:53:52;;;;;;;2.17;0.82;;;29.00;52.50;;;;;;5027845;28;20221;-64
2022/07/26 12:56:18;;;;;;;2.83;0.90;;;28.70;53.10;;;;;;5032658;28;20230;-59
2022/07/26 12:58:45;;;;;;;1.70;0.90;;;28.40;53.70;;;;;;5033164;28;20257;-58